Time;durP1;ratioP1;P1;durP2;ratioP2;P2;SDS_P1;SDS_P2;PMS_P1;PMS_P2;Temp;Humidity;BMP_temperature;BMP_pressure;BME280_temperature;BME280_humidity;BME280_pressure;Samples;Min_cycle;Max_cycle;Signal;HPM_P1;HPM_P2
2022/03/27 00:01:41;;;;;;;6.40;3.70;;;20.60;43.30;;;;;;5033057;28;20179;-71
2022/03/27 00:04:07;;;;;;;5.45;3.38;;;20.60;43.30;;;;;;5014854;28;20261;-71
2022/03/27 00:06:33;;;;;;;6.00;4.03;;;20.60;43.30;;;;;;5031568;28;20266;-71
2022/03/27 00:08:58;;;;;;;4.97;3.90;;;20.60;43.30;;;;;;4998257;28;20270;-71
2022/03/27 00:11:24;;;;;;;6.55;3.90;;;20.60;43.30;;;;;;5015270;28;20187;-71
2022/03/27 00:13:52;;;;;;;6.28;4.50;;;20.60;43.20;;;;;;5008598;28;20212;-71
2022/03/27 00:16:18;;;;;;;7.28;4.18;;;20.60;43.20;;;;;;4990645;28;20210;-72
2022/03/27 00:18:44;;;;;;;5.47;4.00;;;20.60;43.20;;;;;;5015040;28;20195;-71
2022/03/27 00:21:10;;;;;;;5.45;3.67;;;20.50;43.10;;;;;;5014873;28;20190;-71
2022/03/27 00:23:36;;;;;;;4.50;3.90;;;20.50;43.20;;;;;;5014933;28;20203;-71
2022/03/27 00:26:03;;;;;;;5.88;4.03;;;20.50;43.10;;;;;;5032485;28;20571;-71
2022/03/27 00:28:32;;;;;;;6.20;3.97;;;20.50;43.10;;;;;;5012353;28;20211;-71
2022/03/27 00:31:18;;;;;;;4.65;3.90;;;20.50;43.10;;;;;;5006654;28;20187;-71
2022/03/27 00:33:46;;;;;;;6.53;3.50;;;20.50;43.10;;;;;;5014724;28;20210;-71
2022/03/27 00:36:13;;;;;;;3.58;3.28;;;20.50;43.10;;;;;;5014736;28;20191;-71
2022/03/27 00:38:42;;;;;;;3.45;3.15;;;20.50;43.10;;;;;;5014673;28;20194;-71
2022/03/27 00:41:08;;;;;;;6.03;3.40;;;20.50;43.10;;;;;;5014539;28;20228;-71
2022/03/27 00:43:35;;;;;;;3.40;2.97;;;20.50;43.10;;;;;;5014252;28;20203;-71
2022/03/27 00:46:01;;;;;;;3.70;3.20;;;20.50;43.10;;;;;;4978972;28;20198;-71
2022/03/27 00:48:27;;;;;;;4.32;3.20;;;20.50;43.10;;;;;;4978860;28;20211;-71
2022/03/27 00:50:54;;;;;;;3.88;3.10;;;20.50;43.10;;;;;;4977902;28;20181;-71
2022/03/27 00:53:21;;;;;;;5.30;3.88;;;20.50;43.10;;;;;;4975267;28;20212;-71
2022/03/27 00:55:48;;;;;;;4.40;3.83;;;20.50;43.10;;;;;;4992751;28;20185;-71
2022/03/27 00:58:16;;;;;;;4.40;3.75;;;20.50;43.10;;;;;;5004209;28;20199;-71
2022/03/27 01:00:56;;;;;;;5.35;3.90;;;20.50;43.10;;;;;;5006289;28;20186;-71
2022/03/27 01:03:25;;;;;;;6.15;4.05;;;20.50;43.10;;;;;;5015257;23;20233;-72
2022/03/27 01:05:54;;;;;;;6.22;4.25;;;20.50;43.10;;;;;;4976068;28;20177;-69
2022/03/27 01:11:21;;;;;;;4.45;3.10;;;20.50;43.00;;;;;;4992310;28;20181;-68
2022/03/27 01:13:55;;;;;;;3.50;3.20;;;20.50;43.10;;;;;;4991628;28;20223;-69
2022/03/27 01:16:55;;;;;;;4.05;3.17;;;20.50;43.10;;;;;;4991737;28;20176;-69
2022/03/27 01:19:21;;;;;;;4.53;4.07;;;20.50;43.10;;;;;;4991831;28;20256;-69
2022/03/27 01:21:47;;;;;;;5.03;4.03;;;20.50;43.00;;;;;;4991721;28;20264;-69
2022/03/27 01:24:16;;;;;;;4.75;4.13;;;20.50;43.10;;;;;;4991864;28;20589;-68
2022/03/27 01:26:43;;;;;;;4.32;3.92;;;20.50;43.10;;;;;;4991760;28;20181;-68
2022/03/27 01:29:09;;;;;;;5.55;4.13;;;20.40;42.90;;;;;;4988270;28;20196;-68
2022/03/27 01:31:36;;;;;;;4.63;4.18;;;20.50;43.00;;;;;;4988470;28;20592;-68
2022/03/27 01:34:03;;;;;;;3.75;3.38;;;20.50;42.90;;;;;;4985749;28;20248;-68
2022/03/27 01:36:35;;;;;;;4.28;3.15;;;20.50;43.00;;;;;;4987343;28;20718;-68
2022/03/27 01:39:08;;;;;;;3.58;3.17;;;20.40;43.00;;;;;;5008058;28;20203;-68
2022/03/27 01:41:34;;;;;;;4.90;3.33;;;20.40;43.00;;;;;;4999727;28;20652;-68
2022/03/27 01:44:01;;;;;;;3.75;3.40;;;20.40;43.00;;;;;;4975319;28;20205;-68
2022/03/27 01:46:35;;;;;;;3.88;3.28;;;20.50;43.10;;;;;;4991327;28;20203;-68
2022/03/27 01:49:04;;;;;;;3.90;3.17;;;20.50;43.10;;;;;;4991417;28;20216;-68
2022/03/27 01:51:30;;;;;;;3.92;3.47;;;20.50;43.10;;;;;;4991536;28;20193;-68
2022/03/27 01:53:56;;;;;;;4.40;3.65;;;20.40;43.00;;;;;;4991512;28;20212;-69
2022/03/27 01:56:23;;;;;;;5.78;3.92;;;20.40;43.00;;;;;;5007895;28;20184;-68
2022/03/27 01:58:49;;;;;;;5.68;4.07;;;20.50;43.10;;;;;;4991488;28;20569;-69
2022/03/27 02:01:16;;;;;;;4.25;3.85;;;20.50;43.00;;;;;;4994412;28;20188;-69
2022/03/27 02:03:42;;;;;;;4.68;4.22;;;20.40;43.00;;;;;;4990771;28;20221;-67
2022/03/27 02:06:08;;;;;;;4.80;4.25;;;20.40;43.00;;;;;;4989475;28;20220;-69
2022/03/27 02:08:35;;;;;;;4.80;4.13;;;20.40;42.90;;;;;;4972178;28;20213;-69
2022/03/27 02:11:02;;;;;;;4.95;4.00;;;20.40;43.00;;;;;;4971984;28;20174;-69
2022/03/27 02:13:29;;;;;;;5.03;4.50;;;20.40;43.00;;;;;;4971619;28;20344;-69
2022/03/27 02:15:58;;;;;;;5.80;4.25;;;20.40;43.00;;;;;;4988204;28;20665;-68
2022/03/27 02:18:26;;;;;;;5.57;4.07;;;20.40;43.00;;;;;;4971837;28;20186;-69
2022/03/27 02:20:54;;;;;;;4.07;3.20;;;20.40;43.00;;;;;;4972256;28;20189;-69
2022/03/27 02:23:21;;;;;;;5.43;3.05;;;20.40;43.00;;;;;;4955694;28;20223;-69
2022/03/27 02:25:47;;;;;;;4.38;2.92;;;20.40;43.00;;;;;;4971828;28;20543;-69
2022/03/27 02:28:13;;;;;;;3.85;3.45;;;20.40;43.00;;;;;;4972041;28;20210;-68
2022/03/27 02:30:39;;;;;;;3.83;3.30;;;20.40;43.00;;;;;;4973501;28;20230;-69
2022/03/27 02:33:05;;;;;;;3.92;3.47;;;20.40;43.00;;;;;;4991581;28;20174;-68
2022/03/27 02:35:30;;;;;;;4.13;3.10;;;20.40;43.10;;;;;;4991238;28;20184;-68
2022/03/27 02:37:56;;;;;;;4.13;3.13;;;20.40;43.00;;;;;;4991126;28;20201;-68
2022/03/27 02:40:22;;;;;;;4.43;2.95;;;20.40;43.00;;;;;;5002350;28;20203;-68
2022/03/27 02:42:48;;;;;;;3.55;3.03;;;20.40;43.10;;;;;;5010631;28;20212;-68
2022/03/27 02:45:14;;;;;;;4.07;3.38;;;20.40;43.10;;;;;;4979961;28;20205;-68
2022/03/27 02:47:40;;;;;;;3.72;3.38;;;20.40;43.10;;;;;;4994247;28;20240;-67
2022/03/27 02:50:06;;;;;;;5.60;3.92;;;20.40;43.10;;;;;;5002351;28;20231;-68
2022/03/27 02:52:33;;;;;;;4.20;3.80;;;20.40;43.10;;;;;;5010460;28;20742;-68
2022/03/27 02:54:59;;;;;;;4.35;3.95;;;20.40;43.10;;;;;;5006862;28;20213;-69
2022/03/27 02:57:26;;;;;;;4.88;4.38;;;20.40;43.00;;;;;;4989409;28;20189;-69
2022/03/27 02:59:52;;;;;;;4.70;4.30;;;20.40;43.00;;;;;;4990027;28;20196;-68
2022/03/27 03:02:20;;;;;;;4.47;3.55;;;20.40;43.00;;;;;;4988474;28;20185;-68
2022/03/27 03:04:46;;;;;;;5.32;3.95;;;20.40;43.00;;;;;;5001584;28;20232;-68
2022/03/27 03:07:12;;;;;;;6.70;4.00;;;20.40;43.10;;;;;;4994165;28;20216;-69
2022/03/27 03:09:38;;;;;;;4.32;3.90;;;20.40;43.10;;;;;;5010347;28;20213;-68
2022/03/27 03:12:05;;;;;;;3.92;3.53;;;20.40;43.00;;;;;;4977909;28;20173;-68
2022/03/27 03:14:31;;;;;;;3.58;3.28;;;20.40;43.10;;;;;;4993975;28;20239;-68
2022/03/27 03:16:57;;;;;;;3.45;3.00;;;20.40;43.00;;;;;;4993775;28;20561;-68
2022/03/27 03:19:24;;;;;;;3.22;2.92;;;20.40;43.10;;;;;;5002347;28;20185;-68
2022/03/27 03:21:50;;;;;;;4.75;3.20;;;20.40;43.10;;;;;;4993694;28;20655;-68
2022/03/27 03:24:16;;;;;;;3.58;2.65;;;20.40;43.10;;;;;;4993520;28;20201;-68
2022/03/27 03:26:41;;;;;;;3.63;3.33;;;20.40;43.00;;;;;;4993939;28;20188;-68
2022/03/27 03:29:07;;;;;;;4.07;3.05;;;20.40;43.10;;;;;;4993730;28;20637;-68
2022/03/27 03:31:33;;;;;;;2.88;2.67;;;20.40;43.10;;;;;;5010334;28;20189;-68
2022/03/27 03:33:59;;;;;;;3.63;3.13;;;20.40;43.10;;;;;;5009988;28;20702;-68
2022/03/27 03:36:25;;;;;;;4.47;2.97;;;20.40;43.10;;;;;;4993488;28;20187;-68
2022/03/27 03:38:51;;;;;;;2.88;2.67;;;20.40;43.10;;;;;;4993626;28;20193;-68
2022/03/27 03:41:18;;;;;;;3.53;2.95;;;20.40;43.10;;;;;;4993659;28;20192;-69
2022/03/27 03:43:43;;;;;;;4.60;3.35;;;20.40;43.10;;;;;;5009457;28;20279;-69
2022/03/27 03:46:09;;;;;;;3.58;3.28;;;20.40;43.10;;;;;;4993218;28;20181;-68
2022/03/27 03:48:35;;;;;;;4.82;4.00;;;20.40;43.10;;;;;;4985358;28;20626;-68
2022/03/27 03:51:01;;;;;;;5.32;3.78;;;20.40;43.10;;;;;;5009615;28;20199;-68
2022/03/27 03:53:27;;;;;;;4.28;3.53;;;20.40;43.10;;;;;;4992890;28;20209;-68
2022/03/27 03:55:53;;;;;;;4.82;3.92;;;20.40;43.10;;;;;;4993065;28;20207;-68
2022/03/27 03:58:19;;;;;;;5.95;3.97;;;20.40;43.00;;;;;;4994538;28;20235;-68
2022/03/27 04:00:46;;;;;;;4.10;3.67;;;20.40;43.00;;;;;;4993287;28;20235;-69
2022/03/27 04:03:14;;;;;;;4.43;3.92;;;20.40;43.10;;;;;;4992745;28;20189;-68
2022/03/27 04:05:40;;;;;;;5.75;4.18;;;20.30;42.90;;;;;;5008766;28;20531;-68
2022/03/27 04:08:06;;;;;;;4.85;3.70;;;20.40;43.00;;;;;;4981308;28;20203;-68
2022/03/27 04:10:32;;;;;;;4.18;3.28;;;20.30;43.00;;;;;;4973463;28;20576;-68
2022/03/27 04:12:57;;;;;;;3.40;3.10;;;20.30;43.00;;;;;;4989814;28;20178;-68
2022/03/27 04:15:24;;;;;;;2.97;2.78;;;20.30;43.00;;;;;;4973228;28;20190;-69
2022/03/27 04:17:51;;;;;;;3.65;3.03;;;20.30;43.00;;;;;;4973480;28;20210;-69
2022/03/27 04:20:18;;;;;;;3.78;2.97;;;20.40;43.10;;;;;;4973539;28;20194;-68
2022/03/27 04:22:46;;;;;;;3.28;2.97;;;20.30;43.00;;;;;;4973485;28;20273;-68
2022/03/27 04:25:14;;;;;;;3.33;3.00;;;20.30;43.00;;;;;;4989236;28;20760;-69
2022/03/27 04:27:40;;;;;;;3.13;2.90;;;20.30;43.00;;;;;;4973270;28;20221;-68
2022/03/27 04:30:09;;;;;;;3.00;2.80;;;20.30;43.00;;;;;;4973020;28;20276;-69
2022/03/27 04:32:39;;;;;;;3.78;3.47;;;20.30;43.00;;;;;;4972979;28;20216;-68
2022/03/27 04:35:08;;;;;;;3.90;3.40;;;20.30;43.00;;;;;;4976736;28;20205;-69
2022/03/27 04:37:46;;;;;;;4.18;3.70;;;20.30;43.00;;;;;;4984144;28;20189;-69
2022/03/27 04:40:13;;;;;;;5.35;3.78;;;20.30;43.60;;;;;;4989482;28;20189;-68
2022/03/27 04:42:40;;;;;;;4.88;4.07;;;20.30;42.90;;;;;;4974120;28;20225;-68
2022/03/27 04:45:08;;;;;;;3.80;3.50;;;20.30;43.00;;;;;;4988907;28;20256;-68
2022/03/27 04:47:34;;;;;;;5.05;3.92;;;20.30;42.90;;;;;;4972973;28;20217;-68
2022/03/27 04:50:01;;;;;;;5.03;3.85;;;20.30;42.90;;;;;;4989175;28;20193;-68
2022/03/27 04:52:27;;;;;;;5.63;3.90;;;20.30;42.90;;;;;;4973083;28;20212;-69
2022/03/27 04:54:53;;;;;;;4.15;3.35;;;20.30;42.90;;;;;;4972479;28;20209;-68
2022/03/27 04:57:21;;;;;;;3.92;3.50;;;20.30;43.00;;;;;;4979550;28;20220;-68
2022/03/27 04:59:47;;;;;;;3.50;3.20;;;20.30;43.00;;;;;;5000308;28;20224;-68
2022/03/27 05:02:13;;;;;;;3.33;3.03;;;20.30;43.00;;;;;;4992396;28;20207;-69
2022/03/27 05:04:43;;;;;;;2.70;2.42;;;20.30;43.00;;;;;;4991797;28;20220;-69
2022/03/27 05:07:08;;;;;;;3.60;2.70;;;20.30;43.00;;;;;;4993120;28;20208;-68
2022/03/27 05:09:34;;;;;;;3.00;2.80;;;20.30;43.00;;;;;;4992005;28;20173;-68
2022/03/27 05:12:00;;;;;;;3.30;3.00;;;20.30;43.00;;;;;;4988450;28;20185;-68
2022/03/27 05:14:26;;;;;;;5.18;3.10;;;20.30;43.10;;;;;;4995264;28;20208;-69
2022/03/27 05:16:52;;;;;;;3.70;2.88;;;20.30;43.10;;;;;;4991872;28;20192;-69
2022/03/27 05:19:18;;;;;;;3.50;2.90;;;20.30;43.10;;;;;;5008148;28;20193;-68
2022/03/27 05:21:44;;;;;;;3.25;2.95;;;20.30;43.10;;;;;;5008158;28;20199;-69
2022/03/27 05:24:10;;;;;;;4.97;3.30;;;20.30;43.10;;;;;;5007949;28;20204;-68
2022/03/27 05:26:36;;;;;;;4.47;3.95;;;20.30;43.10;;;;;;4992009;28;20197;-68
2022/03/27 05:29:05;;;;;;;5.28;3.42;;;20.30;43.10;;;;;;4992998;28;20212;-68
2022/03/27 05:31:31;;;;;;;4.55;4.15;;;20.30;43.10;;;;;;4991933;28;20272;-68
2022/03/27 05:33:57;;;;;;;4.28;3.88;;;20.30;43.10;;;;;;4991723;28;20299;-68
2022/03/27 05:36:24;;;;;;;4.88;3.63;;;20.30;43.00;;;;;;5008067;28;20641;-69
2022/03/27 05:38:50;;;;;;;5.28;4.00;;;20.30;43.10;;;;;;4991598;28;20180;-68
2022/03/27 05:41:16;;;;;;;5.53;4.20;;;20.30;43.00;;;;;;5008050;28;20197;-69
2022/03/27 05:43:42;;;;;;;5.15;3.70;;;20.30;43.10;;;;;;4998631;28;20208;-69
2022/03/27 05:46:08;;;;;;;4.03;3.63;;;20.30;43.00;;;;;;4972245;28;20252;-68
2022/03/27 05:48:33;;;;;;;4.03;3.25;;;20.20;42.90;;;;;;4971982;28;20206;-68
2022/03/27 05:50:59;;;;;;;3.50;3.20;;;20.20;43.00;;;;;;4973299;28;20182;-68
2022/03/27 05:53:25;;;;;;;4.15;3.00;;;20.30;43.10;;;;;;4972202;28;20208;-69
2022/03/27 05:55:51;;;;;;;3.25;2.95;;;20.20;43.00;;;;;;4988226;28;20193;-69
2022/03/27 05:58:17;;;;;;;3.65;3.10;;;20.20;43.00;;;;;;4972339;28;20217;-69
2022/03/27 06:00:43;;;;;;;3.20;2.88;;;20.30;43.10;;;;;;4971983;28;20194;-68
2022/03/27 06:03:09;;;;;;;2.72;2.53;;;20.30;43.10;;;;;;4971715;28;20194;-68
2022/03/27 06:05:35;;;;;;;3.40;3.10;;;20.30;43.10;;;;;;4975468;28;20177;-69
2022/03/27 06:08:00;;;;;;;3.25;2.95;;;20.30;43.10;;;;;;5011448;28;20215;-68
2022/03/27 06:10:31;;;;;;;3.85;3.00;;;20.30;43.10;;;;;;4995131;28;20258;-68
2022/03/27 06:12:58;;;;;;;3.60;3.10;;;20.30;43.10;;;;;;5000118;28;20253;-67
2022/03/27 06:15:27;;;;;;;3.30;2.85;;;20.20;43.00;;;;;;4991440;28;20181;-68
2022/03/27 06:17:55;;;;;;;3.75;3.35;;;20.20;43.00;;;;;;4991742;28;20543;-68
2022/03/27 06:20:25;;;;;;;3.88;3.45;;;20.30;43.10;;;;;;4975393;28;20196;-69
2022/03/27 06:22:52;;;;;;;4.82;3.90;;;20.30;43.70;;;;;;4959627;28;20225;-69
2022/03/27 06:25:21;;;;;;;6.05;4.10;;;20.30;43.70;;;;;;4991430;28;20285;-68
2022/03/27 06:27:51;;;;;;;4.32;3.63;;;20.20;43.00;;;;;;4991455;28;20217;-68
2022/03/27 06:30:20;;;;;;;4.20;3.70;;;20.30;43.00;;;;;;4982585;28;20184;-68
2022/03/27 06:32:47;;;;;;;5.85;4.18;;;20.30;43.00;;;;;;5000952;28;20198;-68
2022/03/27 06:35:16;;;;;;;4.15;3.70;;;20.30;42.90;;;;;;4984967;28;20206;-67
2022/03/27 06:37:42;;;;;;;4.30;3.90;;;20.30;43.00;;;;;;4991387;28;20182;-68
2022/03/27 06:40:12;;;;;;;4.32;3.60;;;20.30;42.90;;;;;;4975201;28;20616;-70
2022/03/27 06:42:39;;;;;;;6.25;3.40;;;20.30;43.00;;;;;;4977222;28;20186;-69
2022/03/27 06:45:07;;;;;;;3.65;3.30;;;20.30;43.00;;;;;;5005193;28;20712;-68
2022/03/27 06:47:33;;;;;;;3.45;3.10;;;20.40;43.10;;;;;;5010678;28;20240;-69
2022/03/27 06:50:02;;;;;;;3.88;3.17;;;20.40;43.20;;;;;;5010953;28;20184;-68
2022/03/27 06:52:29;;;;;;;3.63;3.05;;;20.40;43.20;;;;;;5010890;28;20193;-69
2022/03/27 06:54:55;;;;;;;4.65;3.22;;;20.40;43.20;;;;;;5010642;28;20213;-68
2022/03/27 06:57:21;;;;;;;4.30;3.70;;;20.40;42.80;;;;;;4977809;28;20189;-67
2022/03/27 07:07:43;;;;;;;7.60;4.78;;;20.40;43.00;;;;;;4974107;28;20260;-68
2022/03/27 07:10:11;;;;;;;6.25;4.40;;;20.50;43.30;;;;;;4975719;28;20213;-69
2022/03/27 07:12:38;;;;;;;11.25;4.93;;;20.50;43.50;;;;;;4958287;28;20181;-68
2022/03/27 07:15:06;;;;;;;7.03;4.40;;;20.50;43.80;;;;;;4962562;28;20194;-68
2022/03/27 07:17:32;;;;;;;5.47;4.50;;;20.60;43.90;;;;;;4989992;28;20657;-68
2022/03/27 07:19:57;;;;;;;8.98;4.50;;;20.60;44.20;;;;;;4974505;28;20220;-69
2022/03/27 07:22:23;;;;;;;9.00;4.72;;;20.60;44.30;;;;;;4974361;28;20581;-69
2022/03/27 07:24:50;;;;;;;8.20;4.63;;;20.60;44.40;;;;;;4974090;28;20210;-68
2022/03/27 07:27:16;;;;;;;10.90;4.78;;;20.70;44.50;;;;;;4990512;28;20226;-69
2022/03/27 07:29:42;;;;;;;8.57;4.10;;;20.70;44.40;;;;;;4974312;28;20197;-68
2022/03/27 07:32:10;;;;;;;8.85;3.97;;;20.70;44.30;;;;;;4974335;28;20244;-69
2022/03/27 07:34:37;;;;;;;7.28;4.50;;;20.70;44.40;;;;;;4974451;28;20216;-67
2022/03/27 07:37:03;;;;;;;5.57;3.72;;;20.80;44.30;;;;;;4974432;28;20613;-68
2022/03/27 07:39:30;;;;;;;11.65;4.00;;;20.80;44.20;;;;;;4974270;28;20272;-68
2022/03/27 07:41:56;;;;;;;7.47;3.88;;;20.80;44.20;;;;;;4976909;28;20184;-67
2022/03/27 07:44:22;;;;;;;7.90;3.75;;;20.80;44.20;;;;;;4984860;28;20197;-67
2022/03/27 07:46:49;;;;;;;7.47;4.00;;;20.80;44.10;;;;;;4993113;28;20579;-68
2022/03/27 07:49:16;;;;;;;8.52;4.25;;;20.80;44.30;;;;;;4993375;28;20216;-68
2022/03/27 07:51:43;;;;;;;7.15;3.38;;;20.80;44.00;;;;;;4993207;28;20192;-68
2022/03/27 07:54:09;;;;;;;7.75;3.75;;;20.70;44.20;;;;;;4992849;28;20688;-68
2022/03/27 07:56:36;;;;;;;11.40;4.00;;;20.80;44.50;;;;;;4993082;28;20220;-68
2022/03/27 07:59:02;;;;;;;9.20;3.55;;;20.80;44.50;;;;;;4976575;28;20188;-68
2022/03/27 08:01:28;;;;;;;7.93;4.00;;;20.80;44.60;;;;;;5009798;28;20662;-68
2022/03/27 08:03:56;;;;;;;9.43;4.20;;;20.90;44.70;;;;;;4985348;28;20208;-67
2022/03/27 08:06:23;;;;;;;9.32;3.90;;;20.90;44.70;;;;;;4987626;28;20196;-68
2022/03/27 08:08:49;;;;;;;7.75;4.40;;;20.90;44.70;;;;;;4992563;28;20766;-68
2022/03/27 08:11:16;;;;;;;8.77;3.70;;;20.90;44.70;;;;;;4993217;28;20176;-68
2022/03/27 08:13:43;;;;;;;7.82;4.40;;;20.90;44.60;;;;;;4992548;28;20196;-68
2022/03/27 08:16:09;;;;;;;6.35;4.03;;;21.00;44.60;;;;;;4992719;28;20189;-68
2022/03/27 08:18:34;;;;;;;5.53;3.72;;;21.00;44.60;;;;;;4993857;28;20181;-68
2022/03/27 08:21:00;;;;;;;7.50;4.28;;;21.00;44.50;;;;;;4991064;28;20193;-68
2022/03/27 08:23:26;;;;;;;8.52;4.32;;;21.00;44.50;;;;;;4984543;28;20184;-67
2022/03/27 08:28:36;;;;;;;9.63;3.47;;;21.00;44.60;;;;;;4992912;28;20203;-68
2022/03/27 08:31:02;;;;;;;9.55;4.38;;;21.00;44.40;;;;;;4992821;28;20184;-68
2022/03/27 08:33:28;;;;;;;8.15;3.85;;;21.00;44.40;;;;;;5008647;28;20215;-68
2022/03/27 08:35:54;;;;;;;6.57;3.70;;;21.00;44.40;;;;;;4992142;28;20653;-68
2022/03/27 08:38:20;;;;;;;5.95;3.30;;;21.00;44.40;;;;;;4982741;28;20245;-68
2022/03/27 08:40:47;;;;;;;6.18;3.63;;;21.00;44.30;;;;;;4996388;28;20212;-68
2022/03/27 08:43:16;;;;;;;4.53;3.78;;;21.00;44.30;;;;;;4992485;28;20185;-67
2022/03/27 08:45:43;;;;;;;8.18;3.90;;;21.00;44.30;;;;;;4976317;28;20633;-68
2022/03/27 08:48:11;;;;;;;6.05;4.03;;;21.00;44.30;;;;;;4979776;28;20213;-68
2022/03/27 08:50:59;;;;;;;6.35;3.95;;;21.00;44.20;;;;;;4972889;28;20280;-68
2022/03/27 08:53:54;;;;;;;5.32;4.22;;;21.00;44.50;;;;;;4973829;28;20170;-68
2022/03/27 08:56:21;;;;;;;5.55;3.60;;;21.00;44.30;;;;;;4974979;28;20255;-68
2022/03/27 08:58:47;;;;;;;5.85;3.58;;;21.00;44.30;;;;;;4983707;28;20201;-68
2022/03/27 09:01:14;;;;;;;7.43;3.92;;;21.00;44.30;;;;;;4990935;28;20188;-68
2022/03/27 09:03:39;;;;;;;5.13;3.83;;;21.00;44.30;;;;;;4972360;28;20201;-68
2022/03/27 09:06:08;;;;;;;5.07;3.63;;;21.10;44.50;;;;;;4972357;28;20197;-68
2022/03/27 09:08:34;;;;;;;5.35;3.60;;;21.10;44.30;;;;;;4973603;28;20213;-68
2022/03/27 09:11:03;;;;;;;6.28;3.53;;;21.10;44.40;;;;;;4972674;28;20228;-68
2022/03/27 09:13:31;;;;;;;5.68;3.85;;;21.10;44.50;;;;;;4973433;28;20193;-67
2022/03/27 09:16:01;;;;;;;5.70;4.03;;;21.10;44.40;;;;;;4988441;28;20185;-68
2022/03/27 09:18:47;;;;;;;5.88;3.50;;;21.10;45.00;;;;;;4972346;28;20660;-67
2022/03/27 09:21:15;;;;;;;5.03;3.72;;;21.10;44.40;;;;;;4973542;28;20178;-68
2022/03/27 09:23:41;;;;;;;4.78;3.83;;;21.10;44.50;;;;;;4972358;28;20189;-68
2022/03/27 09:26:16;;;;;;;7.28;3.72;;;21.00;44.40;;;;;;4976679;28;20195;-68
2022/03/27 09:28:46;;;;;;;7.63;3.97;;;21.00;44.40;;;;;;4983383;28;20291;-68
2022/03/27 09:31:18;;;;;;;3.92;3.22;;;21.10;44.40;;;;;;4992040;28;20173;-68
2022/03/27 09:33:49;;;;;;;6.50;3.63;;;21.00;44.40;;;;;;4992609;28;20220;-68
2022/03/27 09:36:20;;;;;;;4.70;3.30;;;21.10;44.50;;;;;;4991678;28;20188;-68
2022/03/27 09:39:16;;;;;;;5.88;3.78;;;21.10;44.40;;;;;;4991964;28;20185;-68
2022/03/27 09:41:50;;;;;;;4.40;3.17;;;21.10;44.50;;;;;;4994446;28;20208;-68
2022/03/27 09:44:22;;;;;;;5.28;3.53;;;21.10;44.50;;;;;;4995268;28;20208;-68
2022/03/27 09:46:53;;;;;;;5.35;3.47;;;21.00;44.40;;;;;;4995556;28;20220;-68
2022/03/27 09:49:46;;;;;;;4.20;3.30;;;21.00;44.40;;;;;;4995718;28;20311;-68
2022/03/27 09:52:16;;;;;;;4.63;3.90;;;21.00;44.40;;;;;;4996642;28;20180;-68
2022/03/27 09:54:53;;;;;;;5.68;3.42;;;21.00;44.40;;;;;;4996463;28;20212;-68
2022/03/27 09:57:32;;;;;;;4.95;3.53;;;21.10;44.50;;;;;;4987064;28;20181;-66
2022/03/27 10:00:12;;;;;;;3.58;3.25;;;21.10;44.50;;;;;;4992693;28;20506;-67
2022/03/27 10:02:40;;;;;;;3.60;3.22;;;21.00;44.40;;;;;;4977319;28;20208;-68
2022/03/27 10:05:09;;;;;;;4.82;3.22;;;21.10;44.50;;;;;;4991836;28;20216;-68
2022/03/27 10:07:53;;;;;;;8.02;3.60;;;21.00;44.50;;;;;;4992195;28;20217;-68
2022/03/27 10:10:28;;;;;;;3.15;2.85;;;21.00;44.40;;;;;;4991864;28;20169;-68
2022/03/27 10:12:57;;;;;;;5.38;3.28;;;21.10;44.50;;;;;;4975816;28;20182;-68
2022/03/27 10:15:32;;;;;;;5.50;3.67;;;21.10;44.60;;;;;;4975124;28;20583;-68
2022/03/27 10:18:10;;;;;;;5.13;3.72;;;21.10;44.60;;;;;;4986404;28;20188;-68
2022/03/27 10:20:38;;;;;;;4.38;3.47;;;21.00;44.40;;;;;;4995164;28;20176;-68
2022/03/27 10:23:14;;;;;;;6.65;3.20;;;21.10;44.40;;;;;;4996111;28;20192;-68
2022/03/27 10:26:05;;;;;;;6.28;3.42;;;21.10;44.50;;;;;;4994751;28;20219;-68
2022/03/27 10:28:33;;;;;;;3.47;3.00;;;21.00;44.30;;;;;;4978693;28;20295;-66
2022/03/27 10:30:59;;;;;;;4.63;3.60;;;21.10;44.50;;;;;;4994652;28;20241;-68
2022/03/27 10:33:29;;;;;;;3.38;3.08;;;21.10;44.50;;;;;;5011213;28;20196;-68
2022/03/27 10:36:17;;;;;;;4.50;3.50;;;21.00;44.50;;;;;;4994759;28;20272;-68
2022/03/27 10:39:00;;;;;;;4.30;3.35;;;21.00;44.60;;;;;;5010850;28;20170;-68
2022/03/27 10:41:49;;;;;;;4.97;3.65;;;21.10;44.50;;;;;;4994531;28;20192;-68
2022/03/27 10:44:51;;;;;;;4.97;3.63;;;21.10;44.50;;;;;;4995486;28;20279;-68
2022/03/27 10:47:26;;;;;;;3.28;2.97;;;21.10;44.50;;;;;;4986125;28;20187;-66
2022/03/27 10:50:22;;;;;;;3.35;3.05;;;21.10;44.60;;;;;;4992232;28;20184;-68
2022/03/27 10:52:51;;;;;;;4.18;3.47;;;21.10;44.60;;;;;;4969807;28;20244;-68
2022/03/27 10:55:17;;;;;;;3.63;3.10;;;21.10;44.60;;;;;;4974707;28;20217;-68
2022/03/27 10:57:46;;;;;;;5.85;3.67;;;21.10;44.70;;;;;;4971804;28;20191;-68
2022/03/27 11:00:14;;;;;;;4.45;3.45;;;21.10;44.60;;;;;;4980046;28;20189;-68
2022/03/27 11:02:53;;;;;;;4.30;3.20;;;21.10;44.70;;;;;;4974382;28;20197;-69
2022/03/27 11:05:36;;;;;;;5.07;3.35;;;21.10;44.70;;;;;;4986166;28;20222;-68
2022/03/27 11:08:18;;;;;;;3.55;3.22;;;21.10;44.60;;;;;;4998423;28;20213;-68
2022/03/27 11:10:54;;;;;;;4.65;3.00;;;21.10;44.60;;;;;;4974270;28;20194;-68
2022/03/27 11:13:30;;;;;;;3.20;2.90;;;21.10;44.60;;;;;;4974412;28;20182;-68
2022/03/27 11:16:05;;;;;;;3.83;3.20;;;21.10;44.70;;;;;;4974593;28;20193;-68
2022/03/27 11:18:43;;;;;;;4.30;3.00;;;21.10;44.60;;;;;;4974483;28;20232;-68
2022/03/27 11:21:12;;;;;;;3.80;3.40;;;21.10;44.50;;;;;;4978856;28;20200;-68
2022/03/27 11:23:41;;;;;;;5.15;3.08;;;21.10;44.70;;;;;;4985699;28;20221;-68
2022/03/27 11:26:22;;;;;;;4.85;3.38;;;21.10;44.70;;;;;;4993590;28;20184;-68
2022/03/27 11:28:51;;;;;;;4.45;2.92;;;21.10;44.40;;;;;;4993955;28;20240;-68
2022/03/27 11:31:30;;;;;;;4.15;3.08;;;21.10;44.40;;;;;;4994751;28;20239;-68
2022/03/27 11:34:07;;;;;;;4.07;3.03;;;21.10;44.50;;;;;;4993402;28;20742;-68
2022/03/27 11:36:38;;;;;;;4.43;3.10;;;21.10;44.50;;;;;;4995090;28;20169;-68
2022/03/27 11:39:11;;;;;;;3.75;2.75;;;21.10;44.50;;;;;;5010094;28;20200;-68
2022/03/27 11:41:48;;;;;;;3.85;3.10;;;21.10;44.50;;;;;;5009787;28;20196;-68
2022/03/27 11:44:19;;;;;;;3.80;3.38;;;21.10;44.40;;;;;;4993370;28;20239;-68
2022/03/27 11:46:56;;;;;;;4.30;3.60;;;21.10;44.30;;;;;;4993266;28;20189;-68
2022/03/27 11:49:36;;;;;;;3.30;3.00;;;21.10;44.20;;;;;;4993138;28;20212;-68
2022/03/27 11:52:15;;;;;;;3.38;3.08;;;21.10;44.50;;;;;;4986327;28;20267;-68
2022/03/27 11:54:42;;;;;;;4.95;3.63;;;21.10;44.60;;;;;;4977483;28;20209;-66
2022/03/27 11:57:09;;;;;;;4.10;3.20;;;21.10;44.50;;;;;;4973541;28;20196;-68
2022/03/27 11:59:48;;;;;;;2.97;2.75;;;21.10;44.50;;;;;;4974819;28;20201;-68
2022/03/27 12:02:18;;;;;;;4.35;3.10;;;21.10;44.50;;;;;;4997518;28;20186;-68
2022/03/27 12:04:59;;;;;;;3.53;3.22;;;21.10;44.40;;;;;;4990585;28;20584;-67
2022/03/27 12:07:50;;;;;;;3.53;3.22;;;21.10;44.80;;;;;;4992762;28;20259;-68
2022/03/27 12:10:15;;;;;;;3.30;3.00;;;21.10;44.20;;;;;;4992831;28;20200;-67
2022/03/27 12:12:59;;;;;;;3.42;3.10;;;21.10;44.60;;;;;;4993008;28;20644;-68
2022/03/27 12:15:55;;;;;;;3.22;2.80;;;21.10;44.50;;;;;;4992801;28;20208;-68
2022/03/27 12:18:38;;;;;;;4.03;2.95;;;21.10;44.90;;;;;;4980413;28;20200;-68
2022/03/27 12:21:10;;;;;;;3.40;3.10;;;21.10;44.80;;;;;;4990025;28;20211;-67
2022/03/27 12:23:39;;;;;;;4.55;3.10;;;21.10;44.20;;;;;;4984380;28;20185;-68
2022/03/27 12:32:16;;;;;;;3.33;3.00;;;21.10;44.20;;;;;;4992769;28;20184;-68
2022/03/27 12:34:43;;;;;;;3.45;3.00;;;21.10;44.60;;;;;;4983191;28;20228;-68
2022/03/27 12:37:20;;;;;;;2.92;2.72;;;21.10;44.20;;;;;;4985391;28;20195;-68
2022/03/27 12:39:48;;;;;;;4.07;3.53;;;21.20;44.60;;;;;;5008730;28;20172;-68
2022/03/27 12:42:46;;;;;;;3.40;3.10;;;21.10;44.40;;;;;;4992572;28;20184;-67
2022/03/27 12:45:26;;;;;;;4.60;2.97;;;21.10;44.60;;;;;;4992203;28;20208;-68
2022/03/27 12:48:03;;;;;;;3.50;2.95;;;21.10;44.70;;;;;;4993430;28;20284;-68
2022/03/27 12:50:31;;;;;;;3.47;3.17;;;21.10;44.60;;;;;;4990898;28;20203;-68
2022/03/27 12:53:07;;;;;;;3.42;2.90;;;21.10;44.50;;;;;;4983349;28;20220;-68
2022/03/27 12:56:00;;;;;;;3.35;3.05;;;21.10;44.60;;;;;;4991803;28;20209;-67
2022/03/27 12:58:41;;;;;;;5.05;3.33;;;21.10;44.40;;;;;;4988461;28;20233;-68
2022/03/27 13:01:17;;;;;;;3.72;3.05;;;21.10;44.20;;;;;;4973556;28;20189;-68
2022/03/27 13:04:07;;;;;;;3.10;2.80;;;21.20;44.40;;;;;;4988777;28;20232;-68
2022/03/27 13:06:33;;;;;;;3.00;2.80;;;21.10;44.40;;;;;;4973664;28;20200;-68
2022/03/27 13:08:59;;;;;;;3.55;3.08;;;21.20;44.60;;;;;;5059086;23;20261;-71
2022/03/27 13:11:26;;;;;;;3.22;2.67;;;21.20;44.50;;;;;;5053899;28;20170;-72
2022/03/27 13:14:01;;;;;;;2.92;2.72;;;21.10;44.40;;;;;;5070192;28;20189;-72
2022/03/27 13:16:29;;;;;;;4.68;3.42;;;21.20;44.60;;;;;;5054642;28;20192;-71
2022/03/27 13:19:22;;;;;;;2.95;2.75;;;21.10;44.50;;;;;;5054762;28;20211;-73